Time;durP1;ratioP1;P1;durP2;ratioP2;P2;SDS_P1;SDS_P2;PMS_P1;PMS_P2;Temp;Humidity;BMP_temperature;BMP_pressure;BME280_temperature;BME280_humidity;BME280_pressure;Samples;Min_cycle;Max_cycle;Signal;HPM_P1;HPM_P2
2022/01/11 00:01:42;;;;;;;27.48;16.00;;;;;;;0.21;81.87;100731.69;5012503;28;20084;-73
2022/01/11 00:04:09;;;;;;;25.73;15.38;;;;;;;0.36;81.15;100719.50;5003407;28;20096;-73
2022/01/11 00:06:41;;;;;;;25.55;16.50;;;;;;;0.97;80.88;100728.25;4992215;28;20093;-79
2022/01/11 00:09:53;;;;;;;22.80;14.70;;;;;;;0.76;80.26;100718.72;4993366;28;20113;-74
2022/01/11 00:11:53;;;;;;;26.92;14.77;;;;;;;0.72;80.88;100747.81;4988394;28;20558;-73
2022/01/11 00:14:18;;;;;;;21.27;14.20;;;;;;;0.71;80.93;100727.09;4979882;28;20050;-73
2022/01/11 00:16:45;;;;;;;21.73;14.05;;;;;;;1.01;80.79;100756.00;4982068;28;20426;-72
2022/01/11 00:19:13;;;;;;;31.00;15.98;;;;;;;0.01;82.35;100748.81;4979617;28;20042;-72
2022/01/11 00:21:45;;;;;;;25.50;13.68;;;;;;;0.21;81.73;100747.19;4981690;28;20491;-73
2022/01/11 00:24:30;;;;;;;22.25;13.27;;;;;;;0.17;82.49;100737.56;4977916;28;20386;-73
2022/01/11 00:27:07;;;;;;;26.77;16.58;;;;;;;0.31;81.59;100745.94;4976120;28;20076;-74
2022/01/11 00:29:35;;;;;;;27.48;13.80;;;;;;;0.11;81.45;100745.88;4980293;28;20119;-73
2022/01/11 00:32:06;;;;;;;24.88;14.90;;;;;;;0.30;81.90;100742.44;4978009;28;20085;-73
2022/01/11 00:34:46;;;;;;;32.08;14.50;;;;;;;0.41;82.06;100759.31;4980532;28;20049;-73
2022/01/11 00:37:12;;;;;;;25.02;15.38;;;;;;;0.44;82.22;100739.63;4980483;28;20106;-72
2022/01/11 00:39:37;;;;;;;23.02;14.40;;;;;;;0.10;81.93;100738.94;4978842;28;20042;-72
2022/01/11 00:42:03;;;;;;;30.10;15.68;;;;;;;0.48;81.43;100764.78;4979433;28;20030;-74
2022/01/11 00:44:28;;;;;;;31.88;14.90;;;;;;;0.46;81.15;100750.91;4982150;28;20084;-73
2022/01/11 00:46:54;;;;;;;21.63;13.60;;;;;;;0.22;81.88;100759.28;4986696;28;20062;-74
2022/01/11 00:49:19;;;;;;;30.65;15.35;;;;;;;0.15;82.75;100760.69;4981101;28;20441;-73
2022/01/11 00:51:45;;;;;;;22.85;13.80;;;;;;;0.35;82.17;100760.72;4981586;28;20108;-74
2022/01/11 00:55:05;;;;;;;36.63;14.98;;;;;;;-0.17;83.19;100771.16;5026414;28;20630;-76
2022/01/11 00:57:31;;;;;;;25.05;15.23;;;;;;;-0.06;83.26;100768.28;5002124;28;20389;-75
2022/01/11 00:59:56;;;;;;;21.58;12.38;;;;;;;-0.27;83.02;100752.66;5000429;28;20038;-73
2022/01/11 01:02:22;;;;;;;24.23;14.00;;;;;;;0.32;82.41;100770.91;5002645;28;20465;-73
2022/01/11 01:04:48;;;;;;;22.23;13.80;;;;;;;-0.13;82.25;100753.31;5001422;28;20053;-72
2022/01/11 01:07:13;;;;;;;29.35;13.98;;;;;;;0.23;81.98;100765.31;5003566;28;20482;-78
2022/01/11 01:10:01;;;;;;;22.75;13.15;;;;;;;-0.01;81.82;100732.41;4996940;28;20050;-73
2022/01/11 01:12:27;;;;;;;32.88;13.70;;;;;;;-0.21;82.00;100764.97;5001451;28;20065;-71
2022/01/11 01:14:52;;;;;;;21.20;11.63;;;;;;;-0.26;82.45;100748.38;5003414;28;20069;-73
2022/01/11 01:17:18;;;;;;;34.00;14.90;;;;;;;0.14;81.70;100777.00;5005943;28;20818;-74
2022/01/11 01:19:43;;;;;;;23.20;14.52;;;;;;;0.27;81.60;100769.81;5008275;28;20061;-74
2022/01/11 01:22:09;;;;;;;27.80;13.10;;;;;;;0.16;80.85;100753.81;5003146;28;20057;-73
2022/01/11 01:24:34;;;;;;;22.67;13.75;;;;;;;0.22;80.78;100771.31;5000628;28;20073;-73
2022/01/11 01:27:00;;;;;;;19.80;11.27;;;;;;;-0.23;81.69;100746.84;4997625;28;20030;-72
2022/01/11 01:29:25;;;;;;;18.88;11.70;;;;;;;0.12;81.76;100780.31;5001840;28;20052;-74
2022/01/11 01:31:51;;;;;;;18.80;11.48;;;;;;;0.15;81.14;100786.50;5004693;28;20058;-74
2022/01/11 01:34:17;;;;;;;21.30;11.63;;;;;;;0.40;80.42;100780.81;5004883;28;20092;-73
2022/01/11 01:36:42;;;;;;;22.10;12.05;;;;;;;-0.23;81.28;100769.16;5005894;28;20029;-73
2022/01/11 01:39:08;;;;;;;22.15;12.75;;;;;;;0.29;81.07;100778.53;5004219;28;20435;-76
2022/01/11 01:41:33;;;;;;;20.30;12.35;;;;;;;0.21;80.54;100791.03;5006683;28;20424;-74
2022/01/11 01:44:01;;;;;;;21.85;12.48;;;;;;;0.26;79.64;100768.94;5001654;28;20076;-71
2022/01/11 01:46:27;;;;;;;25.40;12.20;;;;;;;0.23;79.53;100763.63;5003074;28;21486;-73
2022/01/11 01:48:55;;;;;;;19.33;12.45;;;;;;;0.09;79.82;100769.81;5001814;28;20438;-75
2022/01/11 01:51:21;;;;;;;22.05;12.52;;;;;;;0.01;80.07;100790.09;5002148;28;20483;-75
2022/01/11 01:53:49;;;;;;;20.48;13.38;;;;;;;0.12;80.33;100793.22;5003777;28;20049;-74
2022/01/11 01:56:17;;;;;;;23.70;12.65;;;;;;;-0.07;81.03;100792.31;5002540;28;20053;-78
2022/01/11 01:58:44;;;;;;;24.73;15.48;;;;;;;0.07;80.60;100803.31;5003120;28;20042;-73
2022/01/11 02:01:12;;;;;;;20.65;11.48;;;;;;;-0.28;81.35;100804.13;5002778;28;20421;-73
2022/01/11 02:03:40;;;;;;;22.95;13.63;;;;;;;-0.06;80.65;100801.81;5004418;28;20104;-74
2022/01/11 02:06:15;;;;;;;19.15;11.38;;;;;;;-0.23;81.22;100789.78;4991228;28;20026;-73
2022/01/11 02:08:42;;;;;;;21.08;11.50;;;;;;;-0.28;81.03;100801.56;4992370;28;20040;-74
2022/01/11 02:11:08;;;;;;;20.75;12.10;;;;;;;-0.07;80.77;100809.47;4989966;28;23151;-73
2022/01/11 02:13:34;;;;;;;21.90;11.95;;;;;;;0.08;80.23;100796.44;4988699;28;20065;-73
2022/01/11 02:16:00;;;;;;;21.08;13.23;;;;;;;0.03;79.37;100787.59;4990636;28;20080;-72
2022/01/11 02:18:27;;;;;;;20.23;12.23;;;;;;;-0.48;81.21;100816.91;4987483;28;20049;-72
2022/01/11 02:20:55;;;;;;;20.75;14.07;;;;;;;-0.56;81.75;100802.78;4987335;28;20037;-76
2022/01/11 02:23:22;;;;;;;22.30;13.90;;;;;;;-0.15;80.96;100797.91;4991965;28;20054;-74
2022/01/11 02:25:48;;;;;;;18.42;11.88;;;;;;;-0.46;80.74;100819.56;4985992;28;20074;-77
2022/01/11 02:28:17;;;;;;;17.02;11.30;;;;;;;-0.15;80.46;100821.09;4988514;28;20101;-73
2022/01/11 02:30:44;;;;;;;19.98;11.02;;;;;;;-0.58;80.40;100798.34;4990615;28;20049;-73
2022/01/11 02:33:32;;;;;;;22.63;13.73;;;;;;;0.03;79.79;100828.88;4991833;28;20023;-73
2022/01/11 02:35:56;;;;;;;18.83;11.00;;;;;;;-0.26;80.03;100828.31;4988314;28;20103;-72
2022/01/11 02:38:21;;;;;;;24.60;14.18;;;;;;;-0.31;80.19;100834.91;4990210;28;20141;-72
2022/01/11 02:40:46;;;;;;;22.38;12.50;;;;;;;-0.02;79.75;100826.94;4987662;28;20069;-71
2022/01/11 02:43:12;;;;;;;20.77;12.77;;;;;;;0.07;78.84;100826.53;4987050;28;20045;-71
2022/01/11 02:45:38;;;;;;;21.77;10.93;;;;;;;-0.31;79.56;100819.44;4989333;28;20041;-75
2022/01/11 02:48:03;;;;;;;21.25;12.88;;;;;;;-0.13;78.96;100816.91;4986354;28;20049;-79
2022/01/11 02:50:29;;;;;;;17.67;10.57;;;;;;;0.04;78.69;100833.22;4988937;28;20049;-74
2022/01/11 02:52:54;;;;;;;23.33;14.30;;;;;;;-0.27;80.01;100832.56;4988418;28;20112;-72
2022/01/11 02:55:20;;;;;;;19.05;10.95;;;;;;;-0.03;79.28;100826.88;4986173;28;20100;-72
2022/01/11 02:57:46;;;;;;;17.70;10.40;;;;;;;-0.50;79.57;100807.34;4988611;28;20050;-72
2022/01/11 03:00:15;;;;;;;26.05;11.55;;;;;;;-0.12;78.79;100836.72;4987321;28;20374;-74
2022/01/11 03:02:42;;;;;;;18.63;11.40;;;;;;;-0.45;78.83;100821.34;4987765;28;20031;-74
2022/01/11 03:05:10;;;;;;;15.15;9.95;;;;;;;-0.47;78.96;100841.00;4990467;28;20429;-72
2022/01/11 03:07:36;;;;;;;18.13;12.43;;;;;;;-0.46;79.17;100833.34;4989064;28;20129;-72
2022/01/11 03:10:13;;;;;;;22.05;11.43;;;;;;;-0.39;79.35;100819.06;4986930;28;20137;-73
2022/01/11 03:12:40;;;;;;;29.27;11.38;;;;;;;-0.54;79.44;100826.94;4989443;28;20066;-72
2022/01/11 03:15:08;;;;;;;21.67;13.85;;;;;;;-0.28;79.09;100838.56;4986008;28;20034;-75
2022/01/11 03:17:33;;;;;;;26.73;14.30;;;;;;;-0.40;78.70;100835.34;4985127;28;20030;-73
2022/01/11 03:20:00;;;;;;;19.65;11.55;;;;;;;-0.39;79.03;100834.53;4987785;28;20068;-76
2022/01/11 03:22:25;;;;;;;20.73;11.27;;;;;;;-0.91;79.87;100837.88;4988056;28;22164;-73
2022/01/11 03:24:51;;;;;;;19.80;12.73;;;;;;;-0.57;78.89;100849.06;4980360;28;20050;-72
2022/01/11 03:27:16;;;;;;;22.75;14.80;;;;;;;-0.55;79.20;100875.81;4989192;28;20034;-72
2022/01/11 03:29:42;;;;;;;18.65;11.68;;;;;;;-0.26;78.67;100851.50;4987562;28;20034;-71
2022/01/11 03:32:08;;;;;;;20.88;12.52;;;;;;;-0.15;78.24;100890.75;4988051;28;20125;-72
2022/01/11 03:34:34;;;;;;;27.30;14.27;;;;;;;-0.10;78.05;100869.53;4987256;28;20041;-74
2022/01/11 03:36:59;;;;;;;26.42;13.65;;;;;;;-0.18;78.15;100900.91;4985404;28;20053;-71
2022/01/11 03:39:26;;;;;;;21.30;13.13;;;;;;;-0.11;78.10;100905.56;4985667;28;20053;-72
2022/01/11 03:41:52;;;;;;;21.58;11.85;;;;;;;-0.32;79.24;100903.66;4990561;28;20080;-72
2022/01/11 03:44:17;;;;;;;23.05;14.18;;;;;;;-0.10;78.55;100909.91;4988533;28;20122;-71
2022/01/11 03:49:10;;;;;;;22.58;13.88;;;;;;;-0.18;79.24;100906.06;5013447;27;20629;-75
2022/01/11 03:51:38;;;;;;;18.98;11.77;;;;;;;0.05;78.42;100909.78;4979410;28;20483;-72
2022/01/11 03:54:12;;;;;;;18.65;13.13;;;;;;;0.33;77.84;100912.94;4977198;28;20455;-71
2022/01/11 03:56:38;;;;;;;22.90;14.38;;;;;;;0.17;77.06;100902.69;4977538;28;20097;-72
2022/01/11 03:59:08;;;;;;;23.83;12.25;;;;;;;0.15;77.34;100910.34;4977100;28;20051;-72
2022/01/11 04:01:37;;;;;;;23.42;12.07;;;;;;;0.12;77.13;100923.09;4975889;28;20058;-75
2022/01/11 04:04:04;;;;;;;21.67;14.20;;;;;;;0.02;77.59;100926.00;4977063;28;20570;-73
2022/01/11 04:06:29;;;;;;;23.00;14.88;;;;;;;-0.22;78.23;100934.25;4975870;28;20125;-71
2022/01/11 04:08:55;;;;;;;21.60;13.07;;;;;;;-0.16;77.52;100930.25;4976370;28;20113;-77
2022/01/11 04:11:20;;;;;;;22.05;15.13;;;;;;;-0.02;78.31;100935.28;4975389;28;20067;-74
2022/01/11 04:13:47;;;;;;;38.85;15.55;;;;;;;-0.22;77.98;100916.19;4975644;28;20133;-73
2022/01/11 04:16:13;;;;;;;19.85;13.48;;;;;;;-0.04;77.97;100924.00;4975956;28;20510;-72
2022/01/11 04:18:39;;;;;;;24.83;13.98;;;;;;;-0.32;78.31;100938.88;4975038;28;20046;-76
2022/01/11 04:21:05;;;;;;;22.83;14.38;;;;;;;-0.09;78.56;100950.38;4977158;28;20149;-73
2022/01/11 04:23:33;;;;;;;25.33;13.93;;;;;;;-0.14;77.39;100933.75;4975283;28;20250;-73
2022/01/11 04:25:59;;;;;;;28.35;16.33;;;;;;;0.04;77.61;100949.31;4972446;28;20043;-72
2022/01/11 04:28:27;;;;;;;26.08;14.50;;;;;;;-0.01;77.36;100959.38;4975718;28;20066;-74
2022/01/11 04:30:57;;;;;;;24.88;14.07;;;;;;;0.09;77.63;100948.72;4976365;28;20050;-72
2022/01/11 04:33:24;;;;;;;22.92;13.40;;;;;;;-0.07;77.54;100949.66;4973920;28;20046;-74
2022/01/11 04:35:50;;;;;;;25.55;14.38;;;;;;;-0.09;77.03;100945.22;4974838;28;20023;-72
2022/01/11 04:38:18;;;;;;;35.28;24.23;;;;;;;-0.12;78.08;100973.41;4976025;28;20048;-73
2022/01/11 04:40:43;;;;;;;26.88;13.63;;;;;;;-0.06;78.02;100981.47;4976260;28;20054;-76
2022/01/11 04:43:09;;;;;;;24.10;13.77;;;;;;;0.07;77.14;100972.66;4975033;28;20043;-73
2022/01/11 04:45:34;;;;;;;23.33;13.50;;;;;;;-0.01;77.04;100956.81;4975575;28;20086;-72
2022/01/11 04:48:00;;;;;;;24.85;14.55;;;;;;;0.14;77.35;100979.91;4975427;28;20054;-71
2022/01/11 04:50:27;;;;;;;21.55;13.05;;;;;;;-0.23;77.69;100984.06;4975097;28;20185;-73
2022/01/11 04:52:52;;;;;;;21.90;13.35;;;;;;;-0.22;78.09;100959.16;4974446;28;20038;-72
2022/01/11 04:55:18;;;;;;;21.88;13.55;;;;;;;-0.08;77.98;100989.13;4975328;28;20043;-73
2022/01/11 04:57:44;;;;;;;23.00;13.40;;;;;;;-0.15;78.10;100989.63;4976045;28;20039;-74
2022/01/11 05:00:10;;;;;;;23.35;13.55;;;;;;;-0.08;77.87;100970.19;4964647;28;20088;-74
2022/01/11 05:02:36;;;;;;;24.70;15.23;;;;;;;-0.15;77.48;100971.56;4962243;28;20094;-75
2022/01/11 05:05:03;;;;;;;26.75;14.35;;;;;;;-0.30;78.62;100981.09;4961553;28;20043;-71
2022/01/11 05:07:28;;;;;;;23.42;14.73;;;;;;;-0.16;78.71;100995.59;4962243;28;20046;-74
2022/01/11 05:09:54;;;;;;;26.40;13.25;;;;;;;-0.26;78.49;100991.66;4961412;28;20472;-73
2022/01/11 05:12:20;;;;;;;24.60;15.23;;;;;;;-0.20;78.46;100998.81;4961735;28;20023;-74
2022/01/11 05:14:45;;;;;;;19.92;12.35;;;;;;;-0.13;78.43;100994.88;4962962;28;20459;-73
2022/01/11 05:17:11;;;;;;;22.67;13.43;;;;;;;0.02;77.83;101018.00;4962242;28;20386;-73
2022/01/11 05:19:36;;;;;;;20.02;12.73;;;;;;;-0.01;77.55;101006.69;4960948;28;20121;-73
2022/01/11 05:22:02;;;;;;;24.92;14.10;;;;;;;-0.07;78.17;101008.97;4962580;28;20043;-72
2022/01/11 05:24:27;;;;;;;25.08;12.77;;;;;;;-0.04;77.80;101016.00;4961716;28;20034;-73
2022/01/11 05:26:53;;;;;;;24.23;13.20;;;;;;;-0.16;77.69;101026.56;4957963;28;20430;-72
2022/01/11 05:29:19;;;;;;;21.05;12.68;;;;;;;-0.11;77.23;101012.19;4961030;28;20126;-73
2022/01/11 05:31:44;;;;;;;19.50;12.77;;;;;;;0.05;77.29;101029.38;4962209;28;20086;-74
2022/01/11 05:34:10;;;;;;;19.73;11.27;;;;;;;0.05;77.13;101038.78;4960963;28;20494;-73
2022/01/11 05:36:35;;;;;;;19.33;11.25;;;;;;;0.13;76.54;101022.91;4960356;28;20104;-76
2022/01/11 05:39:02;;;;;;;25.67;11.80;;;;;;;0.10;76.56;101040.81;4960242;28;20043;-74
2022/01/11 05:41:30;;;;;;;25.63;13.63;;;;;;;-0.01;76.89;101021.28;4961234;28;20121;-71
2022/01/11 05:43:55;;;;;;;17.33;11.88;;;;;;;-0.22;77.90;101023.63;4960226;28;20109;-71
2022/01/11 05:46:21;;;;;;;16.90;12.00;;;;;;;0.12;77.27;101046.94;4961613;28;20038;-73
2022/01/11 05:48:46;;;;;;;23.00;13.32;;;;;;;0.18;77.01;101044.66;4961274;28;20053;-78
2022/01/11 05:51:12;;;;;;;22.40;14.93;;;;;;;0.03;77.46;101059.34;4962341;28;20387;-73
2022/01/11 05:53:38;;;;;;;21.15;13.88;;;;;;;0.22;77.23;101050.00;4959943;28;20030;-78
2022/01/11 05:56:04;;;;;;;21.35;12.18;;;;;;;-0.30;77.28;101072.22;4961417;28;20054;-72
2022/01/11 05:58:29;;;;;;;24.38;15.07;;;;;;;-0.12;77.47;101064.56;4960799;28;20133;-75
2022/01/11 06:00:55;;;;;;;23.20;13.20;;;;;;;-0.14;77.99;101076.53;4960756;28;20070;-72
2022/01/11 06:03:20;;;;;;;33.72;19.13;;;;;;;-0.27;77.80;101066.34;4960619;28;20031;-73
2022/01/11 06:05:46;;;;;;;18.83;12.10;;;;;;;-0.07;77.86;101072.56;4959685;28;20459;-72
2022/01/11 06:08:16;;;;;;;21.02;12.43;;;;;;;0.03;77.22;101081.69;4958614;28;20101;-71
2022/01/11 06:10:42;;;;;;;20.20;11.25;;;;;;;-0.03;76.48;101075.38;4959833;28;20047;-73
2022/01/11 06:13:08;;;;;;;20.95;12.70;;;;;;;-0.06;77.62;101095.84;4960022;28;20191;-77
2022/01/11 06:15:34;;;;;;;25.42;11.23;;;;;;;-0.39;77.49;101069.16;4958779;28;20166;-76
2022/01/11 06:17:59;;;;;;;21.73;12.65;;;;;;;-0.31;77.51;101100.50;4960723;28;20030;-72
2022/01/11 06:20:25;;;;;;;23.52;14.50;;;;;;;-0.10;77.62;101090.44;4958761;28;20054;-73
2022/01/11 06:22:51;;;;;;;18.80;11.35;;;;;;;-0.07;77.42;101099.25;4959414;28;20129;-72
2022/01/11 06:25:16;;;;;;;18.85;11.15;;;;;;;-0.26;77.66;101117.09;4956434;28;20383;-73
2022/01/11 06:27:42;;;;;;;22.85;14.30;;;;;;;-0.32;78.36;101120.25;4958659;28;20031;-72
2022/01/11 06:30:09;;;;;;;22.23;11.52;;;;;;;-0.40;78.36;101134.38;4960627;28;20073;-71
2022/01/11 06:32:36;;;;;;;17.40;11.43;;;;;;;-0.46;78.42;101118.59;4959454;28;20045;-78
2022/01/11 06:35:02;;;;;;;15.13;10.07;;;;;;;-0.26;77.65;101125.75;4958992;28;20081;-71
2022/01/11 06:37:28;;;;;;;19.10;11.38;;;;;;;-0.29;77.60;101143.59;4960384;28;20042;-72
2022/01/11 06:39:54;;;;;;;17.75;11.13;;;;;;;-0.65;78.68;101129.56;4960981;28;20502;-73
2022/01/11 06:42:19;;;;;;;19.60;12.45;;;;;;;0.04;77.70;101147.94;4958573;28;20057;-72
2022/01/11 06:44:45;;;;;;;18.38;9.45;;;;;;;0.03;76.40;101135.88;4960765;28;20054;-74
2022/01/11 06:47:11;;;;;;;17.33;10.90;;;;;;;0.06;76.85;101148.94;4958681;28;20138;-78
2022/01/11 06:49:37;;;;;;;22.33;12.35;;;;;;;0.16;76.33;101153.75;4959335;28;20047;-73
2022/01/11 06:52:03;;;;;;;19.65;12.30;;;;;;;0.18;75.73;101162.47;4959361;28;20053;-70
2022/01/11 06:54:29;;;;;;;17.92;12.93;;;;;;;-0.08;76.64;101128.41;4960055;28;20050;-73
2022/01/11 06:56:54;;;;;;;15.25;9.95;;;;;;;-0.19;76.50;101164.75;4960750;28;20038;-71
2022/01/11 06:59:20;;;;;;;18.70;10.57;;;;;;;-0.08;76.75;101169.69;4960401;28;20046;-71
2022/01/11 07:01:46;;;;;;;17.80;10.18;;;;;;;0.08;75.54;101165.38;4957967;28;20043;-71
2022/01/11 07:04:11;;;;;;;19.52;10.85;;;;;;;0.01;76.31;101166.72;4959503;28;20054;-78
2022/01/11 07:06:37;;;;;;;18.30;11.02;;;;;;;0.05;76.41;101165.19;4959885;28;20364;-73
2022/01/11 07:09:03;;;;;;;19.90;8.02;;;;;;;-0.06;77.19;101168.09;4959816;28;20034;-73
2022/01/11 07:11:28;;;;;;;15.65;9.98;;;;;;;-0.37;76.62;101144.88;4959735;28;23021;-72
2022/01/11 07:13:54;;;;;;;18.13;8.35;;;;;;;-0.45;76.81;101157.31;4959874;28;20058;-74
2022/01/11 07:16:19;;;;;;;14.10;9.93;;;;;;;-0.56;77.38;101170.41;4987978;28;20046;-71
2022/01/11 07:18:46;;;;;;;13.60;8.70;;;;;;;0.04;76.10;101181.50;4959252;28;20050;-77
2022/01/11 07:21:12;;;;;;;20.05;10.82;;;;;;;0.14;76.69;101157.94;4989266;28;20038;-72
2022/01/11 07:23:37;;;;;;;15.95;8.95;;;;;;;0.05;75.49;101172.94;4960302;28;20027;-75
2022/01/11 07:26:03;;;;;;;13.50;8.88;;;;;;;-0.06;76.56;101187.84;4955206;28;20051;-71
2022/01/11 07:28:31;;;;;;;23.38;9.80;;;;;;;-0.80;77.62;101183.66;4959243;28;20051;-72
2022/01/11 07:30:56;;;;;;;18.50;10.02;;;;;;;-0.12;76.76;101183.22;4958766;28;20041;-71
2022/01/11 07:33:22;;;;;;;21.00;8.77;;;;;;;0.09;76.17;101182.63;4959107;28;20027;-71
2022/01/11 07:35:47;;;;;;;13.30;8.43;;;;;;;-0.02;75.70;101187.22;4958471;28;20041;-73
2022/01/11 07:38:13;;;;;;;13.73;8.30;;;;;;;0.12;75.08;101194.00;4961097;28;20089;-72
2022/01/11 07:40:38;;;;;;;14.73;8.20;;;;;;;0.20;76.10;101212.50;4957878;28;20423;-72
2022/01/11 07:43:04;;;;;;;17.30;9.35;;;;;;;0.34;74.98;101201.22;4957365;28;20053;-72
2022/01/11 07:45:29;;;;;;;10.55;6.93;;;;;;;0.43;74.19;101198.25;4956803;28;20109;-72
2022/01/11 07:47:55;;;;;;;22.80;9.68;;;;;;;0.36;74.93;101197.03;4959498;28;20054;-74
2022/01/11 07:50:20;;;;;;;12.88;7.97;;;;;;;0.43;75.11;101213.75;4959419;28;20482;-75
2022/01/11 07:52:48;;;;;;;14.45;8.18;;;;;;;0.32;75.01;101227.75;4958668;28;20045;-73
2022/01/11 07:55:14;;;;;;;16.63;9.25;;;;;;;0.27;75.22;101224.91;4958781;28;20486;-74
2022/01/11 07:57:41;;;;;;;15.05;9.55;;;;;;;0.40;74.87;101204.13;4957521;28;20185;-74
2022/01/11 08:00:07;;;;;;;22.63;9.05;;;;;;;-0.09;75.47;101223.78;4960244;28;20546;-71
2022/01/11 08:02:33;;;;;;;23.35;10.07;;;;;;;0.51;75.14;101227.94;4959518;28;20033;-73
2022/01/11 08:04:58;;;;;;;13.88;8.48;;;;;;;0.54;74.38;101201.38;4959035;28;20035;-72
2022/01/11 08:07:24;;;;;;;15.40;8.80;;;;;;;0.19;74.95;101231.38;4958256;28;20034;-78
2022/01/11 08:09:49;;;;;;;14.40;9.23;;;;;;;0.17;76.64;101214.91;4988901;28;20502;-72
2022/01/11 08:12:15;;;;;;;12.68;9.30;;;;;;;0.05;75.66;101212.53;4958449;28;20097;-76
2022/01/11 08:14:40;;;;;;;25.13;9.25;;;;;;;0.53;75.19;101221.16;4958226;28;20033;-73
2022/01/11 08:17:06;;;;;;;14.82;7.78;;;;;;;0.25;75.94;101212.75;4958696;28;20035;-77
2022/01/11 08:19:31;;;;;;;17.60;10.18;;;;;;;0.34;74.57;101239.94;4958147;28;20054;-73
2022/01/11 08:21:57;;;;;;;23.45;10.82;;;;;;;0.08;75.28;101223.03;4959484;28;20035;-71
2022/01/11 08:24:23;;;;;;;19.33;10.25;;;;;;;0.01;75.83;101241.56;4959852;28;20038;-76
2022/01/11 08:26:53;;;;;;;20.13;11.25;;;;;;;0.11;76.05;101228.34;4953585;28;20046;-72
2022/01/11 08:29:22;;;;;;;18.83;12.43;;;;;;;-0.02;77.29;101247.44;4957176;28;20050;-75
2022/01/11 08:31:48;;;;;;;19.55;11.18;;;;;;;-0.13;76.75;101248.50;4958849;28;20035;-72
2022/01/11 08:34:14;;;;;;;28.33;14.05;;;;;;;0.12;75.77;101244.75;4958080;28;20184;-75
2022/01/11 08:36:42;;;;;;;19.15;11.75;;;;;;;0.15;75.87;101232.88;4962023;28;20479;-73
2022/01/11 08:39:08;;;;;;;20.10;11.07;;;;;;;0.56;75.72;101242.00;4961068;28;20023;-72
2022/01/11 08:41:34;;;;;;;14.00;8.27;;;;;;;0.37;75.39;101246.94;4964089;28;20041;-72
2022/01/11 08:43:59;;;;;;;17.00;10.23;;;;;;;0.35;75.50;101258.88;4962949;28;20039;-72
2022/01/11 08:46:25;;;;;;;14.73;8.70;;;;;;;0.70;74.09;101236.66;4961713;28;20058;-73
2022/01/11 08:48:51;;;;;;;14.98;8.57;;;;;;;-0.07;75.10;101255.69;4959528;28;20051;-74
2022/01/11 08:51:16;;;;;;;16.77;10.57;;;;;;;-0.23;75.65;101238.50;4962164;28;20470;-72
2022/01/11 08:53:42;;;;;;;14.93;8.85;;;;;;;0.25;75.20;101246.28;4962034;28;20085;-72
2022/01/11 08:56:08;;;;;;;20.80;11.07;;;;;;;0.04;75.04;101261.47;4962601;28;20043;-71
2022/01/11 08:58:34;;;;;;;16.88;9.82;;;;;;;0.17;75.62;101236.44;4962574;28;20387;-72
2022/01/11 09:00:59;;;;;;;10.77;8.02;;;;;;;0.07;75.31;101261.63;4960533;28;20050;-73
2022/01/11 09:03:25;;;;;;;13.48;6.45;;;;;;;-0.10;75.49;101234.91;4961739;28;20051;-74
2022/01/11 09:05:52;;;;;;;15.43;10.27;;;;;;;-0.39;75.49;101225.53;4962574;28;20519;-73
2022/01/11 09:08:18;;;;;;;12.18;6.15;;;;;;;-0.57;76.38;101235.66;4962034;28;20077;-74
2022/01/11 09:10:43;;;;;;;17.30;9.20;;;;;;;0.08;75.79;101237.63;4961850;28;20047;-74
2022/01/11 09:13:09;;;;;;;13.50;7.43;;;;;;;0.45;74.98;101252.56;4961145;28;20109;-75
2022/01/11 09:15:34;;;;;;;13.10;7.53;;;;;;;0.55;73.71;101227.28;4960932;28;20043;-74
2022/01/11 09:18:02;;;;;;;21.23;9.30;;;;;;;0.78;74.00;101243.13;4961863;28;20046;-72
2022/01/11 09:20:28;;;;;;;16.02;9.15;;;;;;;0.35;74.13;101243.41;4959734;28;20054;-72
2022/01/11 09:22:54;;;;;;;14.15;9.07;;;;;;;0.57;74.00;101225.69;4959568;28;20065;-72
2022/01/11 09:25:20;;;;;;;9.00;7.05;;;;;;;0.87;73.51;101238.44;4957463;28;20531;-72
2022/01/11 09:27:45;;;;;;;11.32;6.97;;;;;;;0.01;74.34;101228.66;4961242;28;20043;-73
2022/01/11 09:30:13;;;;;;;10.70;6.32;;;;;;;-0.20;74.70;101204.25;4961289;28;20038;-72
2022/01/11 09:32:41;;;;;;;14.10;8.45;;;;;;;0.09;75.23;101224.78;4962827;28;20042;-78
2022/01/11 09:35:10;;;;;;;9.52;6.75;;;;;;;0.34;74.21;101236.47;4959825;28;20046;-72
2022/01/11 09:37:36;;;;;;;12.13;6.68;;;;;;;0.52;74.18;101239.16;4960905;28;20050;-72
2022/01/11 09:40:04;;;;;;;12.40;7.90;;;;;;;0.09;74.71;101239.38;4959321;28;20055;-73
2022/01/11 09:42:30;;;;;;;12.43;7.07;;;;;;;0.31;74.83;101251.78;4961689;28;20085;-74
2022/01/11 09:44:56;;;;;;;12.27;8.35;;;;;;;0.41;74.05;101210.19;4960096;28;20030;-73
2022/01/11 09:47:21;;;;;;;12.32;7.15;;;;;;;0.44;73.27;101246.47;4959640;28;20050;-73
2022/01/11 09:49:47;;;;;;;12.80;6.22;;;;;;;0.31;73.09;101233.72;4960560;28;20042;-73
2022/01/11 09:52:13;;;;;;;16.10;7.05;;;;;;;0.43;73.83;101242.13;4959408;28;20047;-72
2022/01/11 09:54:42;;;;;;;13.13;7.50;;;;;;;0.89;73.34;101236.84;4960234;28;20379;-80
2022/01/11 09:57:09;;;;;;;11.75;6.55;;;;;;;0.81;72.61;101251.03;4960636;28;20031;-72
2022/01/11 09:59:35;;;;;;;14.75;7.43;;;;;;;0.39;72.62;101253.97;4959965;28;20031;-73
2022/01/11 10:02:01;;;;;;;10.85;6.82;;;;;;;0.32;73.10;101241.53;4957449;28;20400;-72
2022/01/11 10:04:29;;;;;;;11.98;7.25;;;;;;;0.81;72.61;101240.69;4956302;28;20053;-74
2022/01/11 10:06:59;;;;;;;14.48;8.40;;;;;;;0.29;74.35;101238.81;4958844;28;20114;-72
2022/01/11 10:09:26;;;;;;;11.38;7.80;;;;;;;0.94;73.10;101258.63;4960722;28;20035;-73
2022/01/11 10:11:57;;;;;;;15.75;7.75;;;;;;;0.55;74.38;101265.16;4960638;28;20034;-71
2022/01/11 10:14:29;;;;;;;14.32;9.52;;;;;;;1.01;73.49;101277.94;4959659;28;20070;-72
2022/01/11 10:17:23;;;;;;;17.85;10.05;;;;;;;0.83;72.43;101265.81;4959277;28;20495;-78
2022/01/11 10:19:49;;;;;;;;;;;;;;;1.10;72.88;101262.91;4959960;28;20048;-71
2022/01/11 10:22:21;;;;;;;16.02;9.80;;;;;;;1.08;71.94;101254.19;4958280;28;19953;-72
2022/01/11 10:24:50;;;;;;;13.60;8.65;;;;;;;1.65;70.88;101282.91;4956761;28;20047;-78
2022/01/11 10:27:18;;;;;;;12.48;8.98;;;;;;;1.56;70.69;101266.94;4959570;28;20098;-72
2022/01/11 10:29:49;;;;;;;16.90;9.02;;;;;;;1.64;70.81;101281.16;4960063;28;20045;-72
2022/01/11 10:32:39;;;;;;;18.80;9.55;;;;;;;1.43;70.86;101268.03;4959563;28;20873;-78
2022/01/11 10:35:09;;;;;;;19.33;12.00;;;;;;;1.40;71.66;101278.19;4957978;28;20073;-72
2022/01/11 10:37:40;;;;;;;16.85;12.50;;;;;;;1.33;71.99;101266.66;4961128;28;20051;-78
2022/01/11 10:40:08;;;;;;;16.55;9.68;;;;;;;0.38;74.10;101285.78;4959965;28;20054;-74
2022/01/11 10:42:38;;;;;;;13.80;10.55;;;;;;;0.68;72.75;101270.19;4958842;28;20046;-74
2022/01/11 10:45:10;;;;;;;16.65;10.02;;;;;;;0.69;74.50;101297.75;4959985;28;20494;-78
2022/01/11 10:47:38;;;;;;;16.10;9.05;;;;;;;0.92;73.53;101280.03;4958371;28;20096;-73
2022/01/11 10:50:08;;;;;;;15.65;9.68;;;;;;;0.54;74.29;101290.09;4988402;28;21080;-74
2022/01/11 10:52:37;;;;;;;28.60;10.50;;;;;;;0.97;73.42;101263.94;4960435;28;20043;-73
2022/01/11 10:55:05;;;;;;;16.02;9.43;;;;;;;1.07;72.73;101291.16;4959184;28;20054;-73
2022/01/11 10:57:33;;;;;;;12.35;8.55;;;;;;;0.32;74.78;101275.09;4958758;28;20055;-73
2022/01/11 11:00:09;;;;;;;15.23;10.40;;;;;;;0.05;76.26;101282.19;4957902;28;20141;-73
2022/01/11 11:02:35;;;;;;;13.88;9.27;;;;;;;-0.15;76.37;101281.06;4958900;28;20128;-74
2022/01/11 11:05:10;;;;;;;16.58;10.52;;;;;;;-0.12;78.00;101275.19;4958556;28;20034;-73
2022/01/11 11:07:36;;;;;;;30.90;10.52;;;;;;;-0.12;77.62;101290.66;4958939;28;20035;-74
2022/01/11 11:10:02;;;;;;;17.80;11.90;;;;;;;0.00;77.27;101288.81;4942673;28;20085;-74
2022/01/11 11:12:27;;;;;;;15.13;8.50;;;;;;;-0.04;77.10;101297.16;4959198;28;20078;-80
2022/01/11 11:14:55;;;;;;;12.90;8.35;;;;;;;-0.36;77.01;101256.63;4959141;28;20124;-72
2022/01/11 11:17:31;;;;;;;18.73;11.57;;;;;;;-0.51;77.82;101280.72;4958952;28;20045;-78
2022/01/11 11:20:07;;;;;;;21.90;11.45;;;;;;;0.29;76.08;101294.69;4959135;28;20070;-73